sensor_id;sensor_type;location;lat;lon;timestamp;P1;durP1;ratioP1;P2;durP2;ratioP2
46411;SDS011;32113;42.012;24.870;2023-11-19T00:01:08;2.05;;;1.10;;
46411;SDS011;32113;42.012;24.870;2023-11-19T00:03:33;2.42;;;1.10;;
46411;SDS011;32113;42.012;24.870;2023-11-19T00:06:00;2.45;;;1.30;;
46411;SDS011;32113;42.012;24.870;2023-11-19T00:08:26;1.67;;;0.90;;
46411;SDS011;32113;42.012;24.870;2023-11-19T00:10:52;1.50;;;1.08;;
46411;SDS011;32113;42.012;24.870;2023-11-19T00:13:19;2.17;;;0.93;;
46411;SDS011;32113;42.012;24.870;2023-11-19T00:15:44;1.90;;;1.10;;
46411;SDS011;32113;42.012;24.870;2023-11-19T00:18:10;2.30;;;0.90;;
46411;SDS011;32113;42.012;24.870;2023-11-19T00:20:35;2.03;;;1.00;;
46411;SDS011;32113;42.012;24.870;2023-11-19T00:23:01;3.00;;;0.98;;
46411;SDS011;32113;42.012;24.870;2023-11-19T00:25:27;1.70;;;1.00;;
46411;SDS011;32113;42.012;24.870;2023-11-19T00:27:53;2.78;;;1.15;;
46411;SDS011;32113;42.012;24.870;2023-11-19T00:30:19;3.47;;;1.10;;
46411;SDS011;32113;42.012;24.870;2023-11-19T00:32:44;2.75;;;0.98;;
46411;SDS011;32113;42.012;24.870;2023-11-19T00:35:10;1.92;;;1.10;;
46411;SDS011;32113;42.012;24.870;2023-11-19T00:37:37;2.10;;;1.02;;
46411;SDS011;32113;42.012;24.870;2023-11-19T00:40:02;1.40;;;0.98;;
46411;SDS011;32113;42.012;24.870;2023-11-19T00:42:30;1.17;;;0.70;;
46411;SDS011;32113;42.012;24.870;2023-11-19T00:44:56;1.98;;;1.00;;
46411;SDS011;32113;42.012;24.870;2023-11-19T00:47:22;1.80;;;0.77;;
46411;SDS011;32113;42.012;24.870;2023-11-19T00:49:48;2.30;;;0.82;;
46411;SDS011;32113;42.012;24.870;2023-11-19T00:52:14;3.92;;;1.10;;
46411;SDS011;32113;42.012;24.870;2023-11-19T00:54:40;6.53;;;1.15;;
46411;SDS011;32113;42.012;24.870;2023-11-19T00:57:05;3.20;;;0.90;;
46411;SDS011;32113;42.012;24.870;2023-11-19T00:59:31;1.75;;;1.13;;
46411;SDS011;32113;42.012;24.870;2023-11-19T01:01:57;3.47;;;1.00;;
46411;SDS011;32113;42.012;24.870;2023-11-19T01:04:28;1.60;;;1.00;;
46411;SDS011;32113;42.012;24.870;2023-11-19T01:06:53;1.60;;;1.05;;
46411;SDS011;32113;42.012;24.870;2023-11-19T01:09:19;2.95;;;1.02;;
46411;SDS011;32113;42.012;24.870;2023-11-19T01:11:44;4.63;;;1.10;;
46411;SDS011;32113;42.012;24.870;2023-11-19T01:14:10;4.13;;;1.35;;
46411;SDS011;32113;42.012;24.870;2023-11-19T01:16:35;4.15;;;1.00;;
46411;SDS011;32113;42.012;24.870;2023-11-19T01:19:01;2.60;;;0.88;;
46411;SDS011;32113;42.012;24.870;2023-11-19T01:21:29;2.03;;;1.10;;
46411;SDS011;32113;42.012;24.870;2023-11-19T01:23:55;2.28;;;1.30;;
46411;SDS011;32113;42.012;24.870;2023-11-19T01:26:22;1.73;;;0.90;;
46411;SDS011;32113;42.012;24.870;2023-11-19T01:28:47;1.33;;;0.90;;
46411;SDS011;32113;42.012;24.870;2023-11-19T01:31:16;1.20;;;0.85;;
46411;SDS011;32113;42.012;24.870;2023-11-19T01:33:42;3.70;;;1.10;;
46411;SDS011;32113;42.012;24.870;2023-11-19T01:36:07;1.67;;;1.02;;
46411;SDS011;32113;42.012;24.870;2023-11-19T01:38:34;1.45;;;0.90;;
46411;SDS011;32113;42.012;24.870;2023-11-19T01:40:59;1.63;;;1.25;;
46411;SDS011;32113;42.012;24.870;2023-11-19T01:43:33;1.90;;;1.15;;
46411;SDS011;32113;42.012;24.870;2023-11-19T01:45:59;1.95;;;0.80;;
46411;SDS011;32113;42.012;24.870;2023-11-19T01:48:25;1.90;;;0.80;;
46411;SDS011;32113;42.012;24.870;2023-11-19T01:50:51;1.73;;;1.05;;
46411;SDS011;32113;42.012;24.870;2023-11-19T01:53:17;1.83;;;1.00;;
46411;SDS011;32113;42.012;24.870;2023-11-19T01:55:43;3.15;;;0.90;;
46411;SDS011;32113;42.012;24.870;2023-11-19T01:58:11;1.60;;;0.90;;
46411;SDS011;32113;42.012;24.870;2023-11-19T02:00:37;1.45;;;0.80;;
46411;SDS011;32113;42.012;24.870;2023-11-19T02:03:04;1.83;;;1.20;;
46411;SDS011;32113;42.012;24.870;2023-11-19T02:05:33;1.88;;;0.93;;
46411;SDS011;32113;42.012;24.870;2023-11-19T02:07:59;1.73;;;1.20;;
46411;SDS011;32113;42.012;24.870;2023-11-19T02:10:24;1.23;;;0.70;;
46411;SDS011;32113;42.012;24.870;2023-11-19T02:12:50;1.63;;;0.93;;
46411;SDS011;32113;42.012;24.870;2023-11-19T02:15:16;2.08;;;0.98;;
46411;SDS011;32113;42.012;24.870;2023-11-19T02:17:44;2.25;;;1.23;;
46411;SDS011;32113;42.012;24.870;2023-11-19T02:20:10;7.22;;;0.90;;
46411;SDS011;32113;42.012;24.870;2023-11-19T02:22:39;1.60;;;0.88;;
46411;SDS011;32113;42.012;24.870;2023-11-19T02:25:07;1.80;;;1.00;;
46411;SDS011;32113;42.012;24.870;2023-11-19T02:30:20;1.80;;;1.17;;
46411;SDS011;32113;42.012;24.870;2023-11-19T02:32:51;3.65;;;1.20;;
46411;SDS011;32113;42.012;24.870;2023-11-19T02:35:17;1.88;;;1.25;;
46411;SDS011;32113;42.012;24.870;2023-11-19T02:37:42;1.73;;;1.13;;
46411;SDS011;32113;42.012;24.870;2023-11-19T02:40:10;1.80;;;1.30;;
46411;SDS011;32113;42.012;24.870;2023-11-19T02:42:35;3.50;;;1.40;;
46411;SDS011;32113;42.012;24.870;2023-11-19T02:45:01;2.42;;;1.30;;
46411;SDS011;32113;42.012;24.870;2023-11-19T02:47:27;1.88;;;1.20;;
46411;SDS011;32113;42.012;24.870;2023-11-19T02:49:55;1.60;;;1.20;;
46411;SDS011;32113;42.012;24.870;2023-11-19T02:52:21;2.97;;;1.15;;
46411;SDS011;32113;42.012;24.870;2023-11-19T02:54:46;2.47;;;1.30;;
46411;SDS011;32113;42.012;24.870;2023-11-19T02:57:12;2.35;;;1.20;;
46411;SDS011;32113;42.012;24.870;2023-11-19T02:59:38;2.40;;;1.10;;
46411;SDS011;32113;42.012;24.870;2023-11-19T03:02:06;3.55;;;1.13;;
46411;SDS011;32113;42.012;24.870;2023-11-19T03:04:36;1.50;;;1.02;;
46411;SDS011;32113;42.012;24.870;2023-11-19T03:07:04;4.93;;;1.42;;
46411;SDS011;32113;42.012;24.870;2023-11-19T03:09:30;1.70;;;1.20;;
46411;SDS011;32113;42.012;24.870;2023-11-19T03:11:56;3.28;;;1.30;;
46411;SDS011;32113;42.012;24.870;2023-11-19T03:14:21;1.48;;;1.10;;
46411;SDS011;32113;42.012;24.870;2023-11-19T03:16:48;1.85;;;1.23;;
46411;SDS011;32113;42.012;24.870;2023-11-19T03:19:13;1.95;;;1.20;;
46411;SDS011;32113;42.012;24.870;2023-11-19T03:21:39;2.05;;;1.20;;
46411;SDS011;32113;42.012;24.870;2023-11-19T03:24:04;1.75;;;1.10;;
46411;SDS011;32113;42.012;24.870;2023-11-19T03:26:30;1.70;;;1.20;;
46411;SDS011;32113;42.012;24.870;2023-11-19T03:28:55;1.75;;;1.23;;
46411;SDS011;32113;42.012;24.870;2023-11-19T03:31:22;2.80;;;1.60;;
46411;SDS011;32113;42.012;24.870;2023-11-19T03:33:48;3.15;;;1.23;;
46411;SDS011;32113;42.012;24.870;2023-11-19T03:36:13;4.68;;;1.30;;
46411;SDS011;32113;42.012;24.870;2023-11-19T03:38:39;2.75;;;1.30;;
46411;SDS011;32113;42.012;24.870;2023-11-19T03:41:13;5.75;;;1.33;;
46411;SDS011;32113;42.012;24.870;2023-11-19T03:43:39;2.90;;;1.27;;
46411;SDS011;32113;42.012;24.870;2023-11-19T03:46:26;2.28;;;1.40;;
46411;SDS011;32113;42.012;24.870;2023-11-19T03:48:52;3.00;;;1.35;;
46411;SDS011;32113;42.012;24.870;2023-11-19T03:51:17;2.28;;;1.48;;
46411;SDS011;32113;42.012;24.870;2023-11-19T03:53:43;2.15;;;1.65;;
46411;SDS011;32113;42.012;24.870;2023-11-19T03:56:10;1.88;;;1.17;;
46411;SDS011;32113;42.012;24.870;2023-11-19T03:58:36;2.45;;;1.50;;
46411;SDS011;32113;42.012;24.870;2023-11-19T04:01:03;4.20;;;1.70;;
46411;SDS011;32113;42.012;24.870;2023-11-19T04:03:29;2.17;;;1.33;;
46411;SDS011;32113;42.012;24.870;2023-11-19T04:05:54;2.58;;;1.40;;
46411;SDS011;32113;42.012;24.870;2023-11-19T04:08:19;4.13;;;1.33;;
46411;SDS011;32113;42.012;24.870;2023-11-19T04:10:45;2.65;;;1.15;;
46411;SDS011;32113;42.012;24.870;2023-11-19T04:13:10;1.67;;;1.20;;
46411;SDS011;32113;42.012;24.870;2023-11-19T04:15:36;2.13;;;1.50;;
46411;SDS011;32113;42.012;24.870;2023-11-19T04:18:01;3.92;;;1.23;;
46411;SDS011;32113;42.012;24.870;2023-11-19T04:20:27;10.18;;;1.65;;
46411;SDS011;32113;42.012;24.870;2023-11-19T04:22:52;1.88;;;1.42;;
46411;SDS011;32113;42.012;24.870;2023-11-19T04:25:18;2.10;;;1.40;;
46411;SDS011;32113;42.012;24.870;2023-11-19T04:27:44;2.97;;;1.33;;
46411;SDS011;32113;42.012;24.870;2023-11-19T04:30:10;1.88;;;1.27;;
46411;SDS011;32113;42.012;24.870;2023-11-19T04:32:36;2.20;;;1.58;;
46411;SDS011;32113;42.012;24.870;2023-11-19T04:35:02;2.90;;;1.83;;
46411;SDS011;32113;42.012;24.870;2023-11-19T04:37:28;2.28;;;1.60;;
46411;SDS011;32113;42.012;24.870;2023-11-19T04:39:54;2.30;;;1.60;;
46411;SDS011;32113;42.012;24.870;2023-11-19T04:42:21;3.75;;;1.67;;
46411;SDS011;32113;42.012;24.870;2023-11-19T04:47:13;2.65;;;1.23;;
46411;SDS011;32113;42.012;24.870;2023-11-19T04:49:42;3.20;;;1.50;;
46411;SDS011;32113;42.012;24.870;2023-11-19T04:52:10;3.63;;;1.30;;
46411;SDS011;32113;42.012;24.870;2023-11-19T04:54:45;2.47;;;1.40;;
46411;SDS011;32113;42.012;24.870;2023-11-19T04:57:11;3.50;;;1.40;;
46411;SDS011;32113;42.012;24.870;2023-11-19T04:59:37;3.15;;;1.10;;
46411;SDS011;32113;42.012;24.870;2023-11-19T05:02:02;2.13;;;1.30;;
46411;SDS011;32113;42.012;24.870;2023-11-19T05:04:29;2.10;;;1.50;;
46411;SDS011;32113;42.012;24.870;2023-11-19T05:06:54;3.03;;;1.58;;
46411;SDS011;32113;42.012;24.870;2023-11-19T05:09:20;2.05;;;1.50;;
46411;SDS011;32113;42.012;24.870;2023-11-19T05:11:45;2.67;;;1.85;;
46411;SDS011;32113;42.012;24.870;2023-11-19T05:14:11;2.45;;;1.55;;
46411;SDS011;32113;42.012;24.870;2023-11-19T05:16:39;3.08;;;1.70;;
46411;SDS011;32113;42.012;24.870;2023-11-19T05:21:30;2.63;;;1.70;;
46411;SDS011;32113;42.012;24.870;2023-11-19T05:23:56;1.55;;;1.30;;
46411;SDS011;32113;42.012;24.870;2023-11-19T05:26:22;4.10;;;1.52;;
46411;SDS011;32113;42.012;24.870;2023-11-19T05:28:49;2.03;;;1.50;;
46411;SDS011;32113;42.012;24.870;2023-11-19T05:31:15;2.13;;;1.50;;
46411;SDS011;32113;42.012;24.870;2023-11-19T05:33:42;3.15;;;1.70;;
46411;SDS011;32113;42.012;24.870;2023-11-19T05:36:08;1.92;;;1.30;;
46411;SDS011;32113;42.012;24.870;2023-11-19T05:38:37;2.38;;;1.55;;
46411;SDS011;32113;42.012;24.870;2023-11-19T05:41:03;3.08;;;1.65;;
46411;SDS011;32113;42.012;24.870;2023-11-19T05:43:29;2.28;;;1.50;;
46411;SDS011;32113;42.012;24.870;2023-11-19T05:45:55;3.35;;;1.42;;
46411;SDS011;32113;42.012;24.870;2023-11-19T05:48:21;3.67;;;1.58;;
46411;SDS011;32113;42.012;24.870;2023-11-19T05:50:46;1.90;;;1.40;;
46411;SDS011;32113;42.012;24.870;2023-11-19T05:53:14;2.17;;;1.50;;
46411;SDS011;32113;42.012;24.870;2023-11-19T05:55:40;3.08;;;1.80;;
46411;SDS011;32113;42.012;24.870;2023-11-19T05:58:11;4.75;;;2.60;;
46411;SDS011;32113;42.012;24.870;2023-11-19T06:00:38;2.33;;;1.65;;
46411;SDS011;32113;42.012;24.870;2023-11-19T06:03:05;3.28;;;2.20;;
46411;SDS011;32113;42.012;24.870;2023-11-19T06:05:32;2.25;;;1.45;;
46411;SDS011;32113;42.012;24.870;2023-11-19T06:07:57;2.20;;;1.52;;
46411;SDS011;32113;42.012;24.870;2023-11-19T06:10:22;2.33;;;1.48;;
46411;SDS011;32113;42.012;24.870;2023-11-19T06:12:54;2.30;;;1.77;;
46411;SDS011;32113;42.012;24.870;2023-11-19T06:15:22;2.80;;;1.55;;
46411;SDS011;32113;42.012;24.870;2023-11-19T06:17:47;2.60;;;1.63;;
46411;SDS011;32113;42.012;24.870;2023-11-19T06:20:13;4.70;;;2.00;;
46411;SDS011;32113;42.012;24.870;2023-11-19T06:22:39;2.40;;;1.50;;
46411;SDS011;32113;42.012;24.870;2023-11-19T06:25:07;3.47;;;1.95;;
46411;SDS011;32113;42.012;24.870;2023-11-19T06:27:33;2.22;;;1.48;;
46411;SDS011;32113;42.012;24.870;2023-11-19T06:29:58;8.15;;;2.00;;
46411;SDS011;32113;42.012;24.870;2023-11-19T06:32:24;7.60;;;2.15;;
46411;SDS011;32113;42.012;24.870;2023-11-19T06:34:50;2.17;;;1.55;;
46411;SDS011;32113;42.012;24.870;2023-11-19T06:37:15;2.40;;;1.67;;
46411;SDS011;32113;42.012;24.870;2023-11-19T06:39:41;2.72;;;1.58;;
46411;SDS011;32113;42.012;24.870;2023-11-19T06:42:06;2.92;;;1.70;;
46411;SDS011;32113;42.012;24.870;2023-11-19T06:44:32;5.22;;;1.63;;
46411;SDS011;32113;42.012;24.870;2023-11-19T06:46:57;2.38;;;1.38;;
46411;SDS011;32113;42.012;24.870;2023-11-19T06:49:23;2.70;;;1.58;;
46411;SDS011;32113;42.012;24.870;2023-11-19T06:51:49;2.15;;;1.42;;
46411;SDS011;32113;42.012;24.870;2023-11-19T06:54:15;3.95;;;2.03;;
46411;SDS011;32113;42.012;24.870;2023-11-19T06:56:41;2.53;;;1.70;;
46411;SDS011;32113;42.012;24.870;2023-11-19T06:59:07;4.55;;;2.00;;
46411;SDS011;32113;42.012;24.870;2023-11-19T07:01:36;2.35;;;1.70;;
46411;SDS011;32113;42.012;24.870;2023-11-19T07:04:02;2.92;;;1.85;;
46411;SDS011;32113;42.012;24.870;2023-11-19T07:06:33;2.20;;;1.50;;
46411;SDS011;32113;42.012;24.870;2023-11-19T07:08:59;3.65;;;1.70;;
46411;SDS011;32113;42.012;24.870;2023-11-19T07:13:53;3.85;;;1.80;;
46411;SDS011;32113;42.012;24.870;2023-11-19T07:16:19;7.28;;;1.95;;
46411;SDS011;32113;42.012;24.870;2023-11-19T07:18:46;2.72;;;1.75;;
46411;SDS011;32113;42.012;24.870;2023-11-19T07:21:15;4.32;;;1.73;;
46411;SDS011;32113;42.012;24.870;2023-11-19T07:23:40;2.55;;;1.70;;
46411;SDS011;32113;42.012;24.870;2023-11-19T07:26:06;3.78;;;2.22;;
46411;SDS011;32113;42.012;24.870;2023-11-19T07:28:33;4.53;;;1.88;;
46411;SDS011;32113;42.012;24.870;2023-11-19T07:30:58;2.10;;;1.30;;
46411;SDS011;32113;42.012;24.870;2023-11-19T07:33:24;2.70;;;1.90;;
46411;SDS011;32113;42.012;24.870;2023-11-19T07:35:50;3.28;;;1.98;;
46411;SDS011;32113;42.012;24.870;2023-11-19T07:38:16;3.05;;;1.75;;
46411;SDS011;32113;42.012;24.870;2023-11-19T07:40:41;2.15;;;1.58;;
46411;SDS011;32113;42.012;24.870;2023-11-19T07:43:06;3.78;;;1.88;;
46411;SDS011;32113;42.012;24.870;2023-11-19T07:45:32;4.97;;;2.67;;
46411;SDS011;32113;42.012;24.870;2023-11-19T07:47:58;3.97;;;2.03;;
46411;SDS011;32113;42.012;24.870;2023-11-19T07:50:23;2.72;;;1.80;;
46411;SDS011;32113;42.012;24.870;2023-11-19T07:52:50;3.47;;;1.50;;
46411;SDS011;32113;42.012;24.870;2023-11-19T07:55:15;4.10;;;2.08;;
46411;SDS011;32113;42.012;24.870;2023-11-19T07:57:41;3.65;;;2.22;;
46411;SDS011;32113;42.012;24.870;2023-11-19T08:00:07;4.70;;;2.50;;
46411;SDS011;32113;42.012;24.870;2023-11-19T08:02:37;4.03;;;1.80;;
46411;SDS011;32113;42.012;24.870;2023-11-19T08:05:04;2.17;;;1.60;;
46411;SDS011;32113;42.012;24.870;2023-11-19T08:07:29;4.53;;;1.90;;
46411;SDS011;32113;42.012;24.870;2023-11-19T08:09:55;4.07;;;2.03;;
46411;SDS011;32113;42.012;24.870;2023-11-19T08:12:20;6.47;;;3.30;;
46411;SDS011;32113;42.012;24.870;2023-11-19T08:14:45;5.95;;;3.65;;
46411;SDS011;32113;42.012;24.870;2023-11-19T08:17:11;3.47;;;2.30;;
46411;SDS011;32113;42.012;24.870;2023-11-19T08:19:36;2.85;;;1.88;;
46411;SDS011;32113;42.012;24.870;2023-11-19T08:22:02;2.28;;;1.52;;
46411;SDS011;32113;42.012;24.870;2023-11-19T08:24:27;2.40;;;1.52;;
46411;SDS011;32113;42.012;24.870;2023-11-19T08:26:53;2.80;;;1.80;;
46411;SDS011;32113;42.012;24.870;2023-11-19T08:29:19;2.40;;;1.98;;
46411;SDS011;32113;42.012;24.870;2023-11-19T08:31:44;4.15;;;2.20;;
46411;SDS011;32113;42.012;24.870;2023-11-19T08:34:11;4.65;;;2.88;;
46411;SDS011;32113;42.012;24.870;2023-11-19T08:36:36;11.30;;;3.40;;
46411;SDS011;32113;42.012;24.870;2023-11-19T08:39:02;8.73;;;2.88;;
46411;SDS011;32113;42.012;24.870;2023-11-19T08:41:28;3.13;;;2.00;;
46411;SDS011;32113;42.012;24.870;2023-11-19T08:43:53;6.80;;;3.65;;
46411;SDS011;32113;42.012;24.870;2023-11-19T08:46:19;4.80;;;3.10;;
46411;SDS011;32113;42.012;24.870;2023-11-19T08:48:44;7.25;;;2.25;;
46411;SDS011;32113;42.012;24.870;2023-11-19T08:51:11;3.78;;;2.42;;
46411;SDS011;32113;42.012;24.870;2023-11-19T08:53:37;7.30;;;2.83;;
46411;SDS011;32113;42.012;24.870;2023-11-19T08:56:03;2.97;;;2.05;;
46411;SDS011;32113;42.012;24.870;2023-11-19T08:58:29;2.45;;;1.77;;
46411;SDS011;32113;42.012;24.870;2023-11-19T09:00:55;4.15;;;1.90;;
46411;SDS011;32113;42.012;24.870;2023-11-19T09:03:21;4.80;;;1.85;;
46411;SDS011;32113;42.012;24.870;2023-11-19T09:05:46;2.75;;;2.10;;
46411;SDS011;32113;42.012;24.870;2023-11-19T09:08:12;2.22;;;1.50;;
46411;SDS011;32113;42.012;24.870;2023-11-19T09:10:37;4.55;;;2.55;;
46411;SDS011;32113;42.012;24.870;2023-11-19T09:13:03;3.78;;;2.25;;
46411;SDS011;32113;42.012;24.870;2023-11-19T09:15:29;4.30;;;2.17;;
46411;SDS011;32113;42.012;24.870;2023-11-19T09:17:54;2.80;;;2.17;;
46411;SDS011;32113;42.012;24.870;2023-11-19T09:20:20;4.68;;;2.60;;
46411;SDS011;32113;42.012;24.870;2023-11-19T09:22:45;4.05;;;2.45;;
46411;SDS011;32113;42.012;24.870;2023-11-19T09:25:11;6.03;;;3.08;;
46411;SDS011;32113;42.012;24.870;2023-11-19T09:27:36;6.60;;;3.30;;
46411;SDS011;32113;42.012;24.870;2023-11-19T09:30:02;3.05;;;2.20;;
46411;SDS011;32113;42.012;24.870;2023-11-19T09:32:29;5.03;;;2.30;;
46411;SDS011;32113;42.012;24.870;2023-11-19T09:34:54;3.78;;;1.70;;
46411;SDS011;32113;42.012;24.870;2023-11-19T09:37:20;4.20;;;1.90;;
46411;SDS011;32113;42.012;24.870;2023-11-19T09:39:45;4.65;;;2.20;;
46411;SDS011;32113;42.012;24.870;2023-11-19T09:42:11;3.42;;;2.05;;
46411;SDS011;32113;42.012;24.870;2023-11-19T09:44:37;4.35;;;2.15;;
46411;SDS011;32113;42.012;24.870;2023-11-19T09:47:05;6.32;;;2.70;;
46411;SDS011;32113;42.012;24.870;2023-11-19T09:49:32;4.40;;;2.50;;
46411;SDS011;32113;42.012;24.870;2023-11-19T09:54:25;3.58;;;1.95;;
46411;SDS011;32113;42.012;24.870;2023-11-19T09:56:50;4.38;;;2.35;;
46411;SDS011;32113;42.012;24.870;2023-11-19T09:59:16;3.53;;;2.20;;
46411;SDS011;32113;42.012;24.870;2023-11-19T10:01:43;3.35;;;2.22;;
46411;SDS011;32113;42.012;24.870;2023-11-19T10:04:11;2.28;;;1.60;;
46411;SDS011;32113;42.012;24.870;2023-11-19T10:06:41;3.75;;;1.73;;
46411;SDS011;32113;42.012;24.870;2023-11-19T10:09:07;5.47;;;1.88;;
46411;SDS011;32113;42.012;24.870;2023-11-19T10:11:32;5.82;;;2.40;;
46411;SDS011;32113;42.012;24.870;2023-11-19T10:13:58;2.88;;;1.85;;
46411;SDS011;32113;42.012;24.870;2023-11-19T10:16:28;5.78;;;3.60;;
46411;SDS011;32113;42.012;24.870;2023-11-19T10:18:57;3.53;;;1.80;;
46411;SDS011;32113;42.012;24.870;2023-11-19T10:21:23;3.10;;;1.90;;
46411;SDS011;32113;42.012;24.870;2023-11-19T10:23:54;3.20;;;2.05;;
46411;SDS011;32113;42.012;24.870;2023-11-19T10:26:22;8.57;;;2.50;;
46411;SDS011;32113;42.012;24.870;2023-11-19T10:28:48;6.28;;;1.90;;
46411;SDS011;32113;42.012;24.870;2023-11-19T10:31:14;3.50;;;2.08;;
46411;SDS011;32113;42.012;24.870;2023-11-19T10:33:40;5.40;;;2.10;;
46411;SDS011;32113;42.012;24.870;2023-11-19T10:36:06;3.72;;;2.00;;
46411;SDS011;32113;42.012;24.870;2023-11-19T10:38:32;4.63;;;2.30;;
46411;SDS011;32113;42.012;24.870;2023-11-19T10:40:58;2.97;;;2.05;;
46411;SDS011;32113;42.012;24.870;2023-11-19T10:43:24;4.20;;;1.70;;
46411;SDS011;32113;42.012;24.870;2023-11-19T10:45:50;5.13;;;1.88;;
46411;SDS011;32113;42.012;24.870;2023-11-19T10:48:16;3.50;;;1.83;;
46411;SDS011;32113;42.012;24.870;2023-11-19T10:50:43;2.47;;;1.90;;
46411;SDS011;32113;42.012;24.870;2023-11-19T10:53:10;2.45;;;1.85;;
46411;SDS011;32113;42.012;24.870;2023-11-19T10:55:39;2.88;;;2.10;;
46411;SDS011;32113;42.012;24.870;2023-11-19T10:58:06;4.75;;;2.65;;
46411;SDS011;32113;42.012;24.870;2023-11-19T11:00:37;6.38;;;3.35;;
46411;SDS011;32113;42.012;24.870;2023-11-19T11:03:22;4.95;;;2.40;;
46411;SDS011;32113;42.012;24.870;2023-11-19T11:08:17;3.55;;;2.13;;
46411;SDS011;32113;42.012;24.870;2023-11-19T11:10:52;4.80;;;2.20;;
46411;SDS011;32113;42.012;24.870;2023-11-19T11:13:19;2.60;;;1.90;;
46411;SDS011;32113;42.012;24.870;2023-11-19T11:15:47;3.83;;;1.90;;
46411;SDS011;32113;42.012;24.870;2023-11-19T11:18:13;4.07;;;2.28;;
46411;SDS011;32113;42.012;24.870;2023-11-19T11:20:39;3.90;;;2.45;;
46411;SDS011;32113;42.012;24.870;2023-11-19T11:26:09;4.18;;;3.00;;
46411;SDS011;32113;42.012;24.870;2023-11-19T11:29:01;5.90;;;3.25;;
46411;SDS011;32113;42.012;24.870;2023-11-19T11:31:36;6.20;;;2.22;;
46411;SDS011;32113;42.012;24.870;2023-11-19T11:36:35;3.83;;;2.00;;
46411;SDS011;32113;42.012;24.870;2023-11-19T11:39:14;4.90;;;2.95;;
46411;SDS011;32113;42.012;24.870;2023-11-19T11:41:41;4.82;;;2.67;;
46411;SDS011;32113;42.012;24.870;2023-11-19T11:44:07;7.72;;;2.47;;
46411;SDS011;32113;42.012;24.870;2023-11-19T12:02:09;3.53;;;2.33;;
46411;SDS011;32113;42.012;24.870;2023-11-19T12:04:36;3.63;;;2.17;;
46411;SDS011;32113;42.012;24.870;2023-11-19T12:07:11;3.40;;;2.25;;
46411;SDS011;32113;42.012;24.870;2023-11-19T12:09:42;4.03;;;2.40;;
46411;SDS011;32113;42.012;24.870;2023-11-19T12:15:03;3.53;;;2.22;;
46411;SDS011;32113;42.012;24.870;2023-11-19T12:20:02;3.08;;;2.35;;
46411;SDS011;32113;42.012;24.870;2023-11-19T12:22:33;2.60;;;1.92;;
46411;SDS011;32113;42.012;24.870;2023-11-19T12:24:59;3.45;;;2.13;;
46411;SDS011;32113;42.012;24.870;2023-11-19T12:27:24;2.90;;;2.30;;
46411;SDS011;32113;42.012;24.870;2023-11-19T12:29:51;4.45;;;2.75;;
46411;SDS011;32113;42.012;24.870;2023-11-19T12:32:17;4.65;;;2.55;;
46411;SDS011;32113;42.012;24.870;2023-11-19T12:34:44;3.28;;;2.20;;
46411;SDS011;32113;42.012;24.870;2023-11-19T12:37:10;4.40;;;2.47;;
46411;SDS011;32113;42.012;24.870;2023-11-19T12:39:35;3.78;;;2.58;;
46411;SDS011;32113;42.012;24.870;2023-11-19T12:42:01;3.80;;;2.38;;
46411;SDS011;32113;42.012;24.870;2023-11-19T12:44:27;4.90;;;2.78;;
46411;SDS011;32113;42.012;24.870;2023-11-19T12:46:59;4.18;;;2.67;;
46411;SDS011;32113;42.012;24.870;2023-11-19T12:49:26;4.70;;;2.88;;
46411;SDS011;32113;42.012;24.870;2023-11-19T12:51:51;4.45;;;2.22;;
46411;SDS011;32113;42.012;24.870;2023-11-19T12:54:17;3.58;;;2.45;;
46411;SDS011;32113;42.012;24.870;2023-11-19T12:56:52;5.30;;;2.78;;
46411;SDS011;32113;42.012;24.870;2023-11-19T12:59:18;3.17;;;2.60;;
46411;SDS011;32113;42.012;24.870;2023-11-19T13:01:59;3.70;;;2.70;;
46411;SDS011;32113;42.012;24.870;2023-11-19T13:04:28;4.65;;;2.78;;
46411;SDS011;32113;42.012;24.870;2023-11-19T13:06:58;4.03;;;2.70;;
46411;SDS011;32113;42.012;24.870;2023-11-19T13:09:24;3.70;;;2.92;;
46411;SDS011;32113;42.012;24.870;2023-11-19T13:11:51;3.97;;;2.95;;
46411;SDS011;32113;42.012;24.870;2023-11-19T13:14:18;5.63;;;3.30;;
46411;SDS011;32113;42.012;24.870;2023-11-19T13:16:44;3.97;;;3.08;;
46411;SDS011;32113;42.012;24.870;2023-11-19T13:19:13;4.53;;;3.38;;
46411;SDS011;32113;42.012;24.870;2023-11-19T13:21:39;4.65;;;3.05;;
46411;SDS011;32113;42.012;24.870;2023-11-19T13:24:07;4.18;;;2.85;;
46411;SDS011;32113;42.012;24.870;2023-11-19T13:26:33;4.03;;;3.05;;
46411;SDS011;32113;42.012;24.870;2023-11-19T13:28:59;5.05;;;3.50;;
46411;SDS011;32113;42.012;24.870;2023-11-19T13:31:25;7.45;;;3.58;;
46411;SDS011;32113;42.012;24.870;2023-11-19T13:33:51;3.97;;;3.28;;
46411;SDS011;32113;42.012;24.870;2023-11-19T13:36:16;7.70;;;4.20;;
46411;SDS011;32113;42.012;24.870;2023-11-19T13:38:42;5.95;;;3.55;;
46411;SDS011;32113;42.012;24.870;2023-11-19T13:41:09;9.00;;;3.10;;
46411;SDS011;32113;42.012;24.870;2023-11-19T13:43:36;6.68;;;3.30;;
46411;SDS011;32113;42.012;24.870;2023-11-19T13:46:02;4.35;;;3.33;;
46411;SDS011;32113;42.012;24.870;2023-11-19T13:48:28;4.38;;;3.55;;
46411;SDS011;32113;42.012;24.870;2023-11-19T13:50:55;4.78;;;3.55;;
46411;SDS011;32113;42.012;24.870;2023-11-19T13:53:21;5.95;;;4.20;;
46411;SDS011;32113;42.012;24.870;2023-11-19T13:55:47;6.60;;;4.03;;
46411;SDS011;32113;42.012;24.870;2023-11-19T13:58:15;5.35;;;3.80;;
46411;SDS011;32113;42.012;24.870;2023-11-19T14:00:41;9.50;;;4.13;;
46411;SDS011;32113;42.012;24.870;2023-11-19T14:03:08;4.53;;;3.30;;
46411;SDS011;32113;42.012;24.870;2023-11-19T14:05:35;6.05;;;3.50;;
46411;SDS011;32113;42.012;24.870;2023-11-19T14:08:03;5.63;;;3.67;;
46411;SDS011;32113;42.012;24.870;2023-11-19T14:10:36;4.00;;;3.20;;
46411;SDS011;32113;42.012;24.870;2023-11-19T14:13:04;4.47;;;3.00;;
46411;SDS011;32113;42.012;24.870;2023-11-19T14:15:29;6.35;;;3.88;;
46411;SDS011;32113;42.012;24.870;2023-11-19T14:17:56;7.57;;;4.45;;
46411;SDS011;32113;42.012;24.870;2023-11-19T14:20:21;5.60;;;4.07;;
46411;SDS011;32113;42.012;24.870;2023-11-19T14:22:47;5.97;;;4.20;;
46411;SDS011;32113;42.012;24.870;2023-11-19T14:25:14;7.45;;;4.35;;
46411;SDS011;32113;42.012;24.870;2023-11-19T14:27:40;7.15;;;4.82;;
46411;SDS011;32113;42.012;24.870;2023-11-19T14:30:07;7.35;;;4.72;;
46411;SDS011;32113;42.012;24.870;2023-11-19T14:32:36;8.13;;;5.30;;
46411;SDS011;32113;42.012;24.870;2023-11-19T14:35:02;8.90;;;5.25;;
46411;SDS011;32113;42.012;24.870;2023-11-19T14:37:28;10.85;;;5.63;;
46411;SDS011;32113;42.012;24.870;2023-11-19T14:39:55;9.07;;;5.13;;
46411;SDS011;32113;42.012;24.870;2023-11-19T14:42:22;8.82;;;5.50;;
46411;SDS011;32113;42.012;24.870;2023-11-19T14:44:48;14.38;;;5.80;;
46411;SDS011;32113;42.012;24.870;2023-11-19T14:47:14;11.80;;;6.72;;
46411;SDS011;32113;42.012;24.870;2023-11-19T14:49:39;12.77;;;7.70;;
46411;SDS011;32113;42.012;24.870;2023-11-19T14:52:04;13.52;;;7.93;;
46411;SDS011;32113;42.012;24.870;2023-11-19T14:54:30;12.05;;;8.30;;
46411;SDS011;32113;42.012;24.870;2023-11-19T14:56:56;14.10;;;8.63;;
46411;SDS011;32113;42.012;24.870;2023-11-19T14:59:21;12.68;;;7.72;;
46411;SDS011;32113;42.012;24.870;2023-11-19T15:01:47;16.55;;;9.45;;
46411;SDS011;32113;42.012;24.870;2023-11-19T15:04:12;14.85;;;10.05;;
46411;SDS011;32113;42.012;24.870;2023-11-19T15:06:38;19.52;;;11.15;;
46411;SDS011;32113;42.012;24.870;2023-11-19T15:09:04;11.63;;;8.20;;
46411;SDS011;32113;42.012;24.870;2023-11-19T15:11:30;13.30;;;9.27;;